createdAt,value
2018-05-27T00:03:12.951Z,66.35
2018-05-27T00:08:13.947Z,66.42
2018-05-27T00:13:14.921Z,66.28
2018-05-27T00:18:15.859Z,66.00
2018-05-27T00:23:16.824Z,65.95
2018-05-27T00:28:17.805Z,66.26
2018-05-27T00:33:18.764Z,67.14
2018-05-27T00:38:19.702Z,67.06
2018-05-27T00:43:20.685Z,67.89
2018-05-27T00:48:21.672Z,68.09
2018-05-27T00:53:35.153Z,68.39
2018-05-27T00:58:36.124Z,68.28
2018-05-27T01:03:37.100Z,69.23
2018-05-27T01:08:38.103Z,69.42
2018-05-27T01:13:39.038Z,69.38
2018-05-27T01:18:40.025Z,69.56
2018-05-27T01:23:40.996Z,70.14
2018-05-27T01:28:41.977Z,70.15
2018-05-27T01:33:42.955Z,70.03
2018-05-27T01:38:43.924Z,71.32
2018-05-27T01:43:44.880Z,71.24
2018-05-27T01:48:45.846Z,71.84
2018-05-27T01:53:46.796Z,72.92
2018-05-27T01:58:47.786Z,72.60
2018-05-27T02:03:48.748Z,73.44
2018-05-27T02:08:49.728Z,74.42
2018-05-27T02:13:50.671Z,73.96
2018-05-27T02:18:51.655Z,73.61
2018-05-27T02:23:52.617Z,73.05
2018-05-27T02:28:53.571Z,73.75
2018-05-27T02:33:54.533Z,74.15
2018-05-27T02:38:55.485Z,74.33
2018-05-27T02:43:56.516Z,74.08
2018-05-27T02:48:57.505Z,73.22
2018-05-27T02:53:58.447Z,72.67
2018-05-27T02:58:59.385Z,72.33
2018-05-27T03:04:00.332Z,72.01
2018-05-27T03:09:01.264Z,72.13
2018-05-27T03:14:02.203Z,73.42
2018-05-27T03:19:03.162Z,72.57
2018-05-27T03:24:04.131Z,71.96
2018-05-27T03:29:05.090Z,72.28
2018-05-27T03:34:06.036Z,72.00
2018-05-27T03:39:07.000Z,72.87
2018-05-27T03:44:07.961Z,73.07
2018-05-27T03:49:08.953Z,73.76
2018-05-27T03:54:09.953Z,73.29
2018-05-27T03:59:10.929Z,72.84
2018-05-27T04:04:24.127Z,72.29
2018-05-27T04:09:25.080Z,73.30
2018-05-27T04:14:26.044Z,73.19
2018-05-27T04:19:26.986Z,73.84
2018-05-27T04:24:28.507Z,73.11
2018-05-27T04:29:29.443Z,73.64
2018-05-27T04:34:30.412Z,74.28
2018-05-27T04:39:31.373Z,74.16
2018-05-27T04:44:32.364Z,74.31
2018-05-27T04:49:33.355Z,73.83
2018-05-27T04:54:34.307Z,73.24
2018-05-27T04:59:35.276Z,73.93
2018-05-27T05:04:36.223Z,73.28
2018-05-27T05:09:37.181Z,73.38
2018-05-27T05:14:38.146Z,72.90
2018-05-27T05:19:39.101Z,72.48
2018-05-27T05:24:40.061Z,71.88
2018-05-27T05:29:41.024Z,72.20
2018-05-27T05:34:41.994Z,71.90
2018-05-27T05:39:42.944Z,71.32
2018-05-27T05:44:43.901Z,71.58
2018-05-27T05:49:44.870Z,70.53
2018-05-27T05:54:45.819Z,70.31
2018-05-27T05:59:53.632Z,70.04
2018-05-27T06:04:54.576Z,70.53
2018-05-27T06:09:55.540Z,70.25
2018-05-27T06:14:56.516Z,70.17
2018-05-27T06:19:57.511Z,70.14
2018-05-27T06:24:58.472Z,70.60
2018-05-27T06:29:59.445Z,70.32
2018-05-27T06:35:00.451Z,70.61
2018-05-27T06:40:01.409Z,70.32
2018-05-27T06:45:02.374Z,69.49
2018-05-27T06:50:03.375Z,70.45
2018-05-27T06:55:04.347Z,71.05
2018-05-27T07:00:05.334Z,70.50
2018-05-27T07:05:06.306Z,69.71
2018-05-27T07:10:07.259Z,70.14
2018-05-27T07:15:08.227Z,69.71
2018-05-27T07:20:09.181Z,69.11
2018-05-27T07:25:10.152Z,69.45
2018-05-27T07:30:11.145Z,69.35
2018-05-27T07:35:12.130Z,68.65
2018-05-27T07:40:13.121Z,69.54
2018-05-27T07:45:14.082Z,70.09
2018-05-27T07:50:15.066Z,69.35
2018-05-27T07:55:16.073Z,68.00
2018-05-27T08:00:17.069Z,68.57
2018-05-27T08:05:18.026Z,68.70
2018-05-27T08:10:18.994Z,68.52
2018-05-27T08:15:19.970Z,68.84
2018-05-27T08:20:20.976Z,68.84
2018-05-27T08:25:22.024Z,67.65
2018-05-27T08:30:23.039Z,67.45
2018-05-27T08:35:24.032Z,67.36
2018-05-27T08:40:25.011Z,66.43
2018-05-27T08:45:25.988Z,66.70
2018-05-27T08:50:27.034Z,65.98
2018-05-27T08:55:28.053Z,65.76
2018-05-27T09:00:29.045Z,66.04
2018-05-27T09:05:30.016Z,66.82
2018-05-27T09:10:31.000Z,66.88
2018-05-27T09:15:32.026Z,64.61
2018-05-27T09:20:33.018Z,65.59
2018-05-27T09:25:34.001Z,64.93
2018-05-27T09:30:34.991Z,62.87
2018-05-27T09:35:35.975Z,64.51
2018-05-27T09:40:36.983Z,64.30
2018-05-27T09:45:38.015Z,63.45
2018-05-27T09:50:39.028Z,63.64
2018-05-27T09:55:40.035Z,64.45
2018-05-27T10:00:41.040Z,66.05
2018-05-27T10:05:41.994Z,66.70
2018-05-27T10:10:42.987Z,68.02
2018-05-27T10:15:43.981Z,67.91
2018-05-27T10:20:44.964Z,69.03
2018-05-27T10:25:46.014Z,70.58
2018-05-27T10:30:46.947Z,71.23
2018-05-27T10:35:47.937Z,70.43
2018-05-27T10:40:48.949Z,70.60
2018-05-27T10:45:49.896Z,71.91
2018-05-27T10:50:50.935Z,72.78
2018-05-27T10:55:51.908Z,72.04
2018-05-27T11:00:52.872Z,71.74
2018-05-27T11:05:53.858Z,72.19
2018-05-27T11:10:54.848Z,71.58
2018-05-27T11:15:55.814Z,70.92
2018-05-27T11:20:56.808Z,70.21
2018-05-27T11:25:57.785Z,71.47
2018-05-27T11:30:58.782Z,71.69
2018-05-27T11:35:59.745Z,72.41
2018-05-27T11:41:00.740Z,71.83
2018-05-27T11:46:01.731Z,71.73
2018-05-27T11:51:02.785Z,72.90
2018-05-27T11:56:03.793Z,73.46
2018-05-27T12:01:11.146Z,71.31
2018-05-27T12:06:12.592Z,68.00
2018-05-27T12:11:13.576Z,66.65
2018-05-27T12:16:14.641Z,67.27
2018-05-27T12:21:15.683Z,65.62
2018-05-27T12:26:16.677Z,61.68
2018-05-27T12:31:17.665Z,61.93
2018-05-27T12:36:18.694Z,60.66
2018-05-27T12:41:19.679Z,58.72
2018-05-27T12:46:21.689Z,59.13
2018-05-27T12:51:23.521Z,57.94
2018-05-27T12:56:24.502Z,59.35
2018-05-27T13:01:25.479Z,57.17
2018-05-27T13:06:26.516Z,57.07
2018-05-27T13:11:27.496Z,58.52
2018-05-27T13:16:28.613Z,60.34
2018-05-27T13:21:29.521Z,60.54
2018-05-27T13:26:30.524Z,60.21
2018-05-27T13:31:31.543Z,60.49
2018-05-27T13:36:32.586Z,60.64
2018-05-27T13:41:33.562Z,58.94
2018-05-27T13:46:34.537Z,59.19
2018-05-27T13:51:35.591Z,58.90
2018-05-27T13:56:36.606Z,57.44
2018-05-27T14:01:37.605Z,55.82
2018-05-27T14:06:38.644Z,52.63
2018-05-27T14:11:39.682Z,52.46
2018-05-27T14:16:40.731Z,51.73
2018-05-27T14:21:41.773Z,51.22
2018-05-27T14:26:42.778Z,49.58
2018-05-27T14:31:43.864Z,49.41
2018-05-27T14:36:44.885Z,50.84
2018-05-27T14:41:45.890Z,51.79
2018-05-27T14:46:46.907Z,51.55
2018-05-27T14:51:47.944Z,53.08
2018-05-27T14:56:48.941Z,51.99
2018-05-27T15:01:49.954Z,53.50
2018-05-27T15:06:50.977Z,53.35
2018-05-27T15:11:52.067Z,55.74
2018-05-27T15:16:53.195Z,56.78
2018-05-27T15:21:54.248Z,56.50
2018-05-27T15:26:56.324Z,57.01
2018-05-27T15:31:57.435Z,57.30
2018-05-27T15:36:58.413Z,59.23
2018-05-27T15:41:59.431Z,60.05
2018-05-27T15:47:00.486Z,59.53
2018-05-27T15:52:01.603Z,58.73
2018-05-27T15:57:02.625Z,59.63
2018-05-27T16:02:03.641Z,61.88
2018-05-27T16:07:04.687Z,63.11
2018-05-27T16:12:05.738Z,62.02
2018-05-27T16:17:06.789Z,61.42
2018-05-27T16:22:07.862Z,62.10
2018-05-27T16:27:08.921Z,61.02
2018-05-27T16:32:09.947Z,61.02
2018-05-27T16:37:10.979Z,61.94
2018-05-27T16:42:11.982Z,62.93
2018-05-27T16:47:13.002Z,63.08
2018-05-27T16:52:14.028Z,63.91
2018-05-27T16:57:15.044Z,64.56
2018-05-27T17:02:16.013Z,65.53
2018-05-27T17:07:17.021Z,65.43
2018-05-27T17:12:18.119Z,65.54
2018-05-27T17:17:19.158Z,66.96
2018-05-27T17:22:20.159Z,67.30
2018-05-27T17:27:21.150Z,67.29
2018-05-27T17:32:22.157Z,67.27
2018-05-27T17:37:23.175Z,68.00
2018-05-27T17:42:24.170Z,67.58
2018-05-27T17:47:25.145Z,67.96
2018-05-27T17:52:26.181Z,69.12
2018-05-27T17:57:27.228Z,70.02
2018-05-27T18:02:28.240Z,70.62
2018-05-27T18:07:29.232Z,71.01
2018-05-27T18:12:30.253Z,71.33
2018-05-27T18:17:31.292Z,73.30
2018-05-27T18:22:32.285Z,72.68
2018-05-27T18:27:33.294Z,73.79
2018-05-27T18:32:37.217Z,74.15
2018-05-27T18:37:38.287Z,74.11
2018-05-27T18:42:41.402Z,74.49
2018-05-27T18:47:42.479Z,74.72
2018-05-27T18:52:43.548Z,75.40
2018-05-27T18:57:44.537Z,75.33
2018-05-27T19:02:45.560Z,75.32
2018-05-27T19:07:46.550Z,75.35
2018-05-27T19:12:47.565Z,75.88
2018-05-27T19:17:48.575Z,75.69
2018-05-27T19:22:49.570Z,75.19
2018-05-27T19:27:50.625Z,76.18
2018-05-27T19:32:51.693Z,76.83
2018-05-27T19:37:52.696Z,76.72
2018-05-27T19:42:53.692Z,77.74
2018-05-27T19:47:54.715Z,77.45
2018-05-27T19:52:55.800Z,77.52
2018-05-27T19:57:56.861Z,77.27
2018-05-27T20:02:57.868Z,76.88
2018-05-27T20:07:58.873Z,76.16
2018-05-27T20:12:59.900Z,75.44
2018-05-27T20:18:00.958Z,75.25
2018-05-27T20:23:01.949Z,73.56
2018-05-27T20:28:02.990Z,72.76
2018-05-27T20:33:03.984Z,71.17
2018-05-27T20:38:04.997Z,71.16
2018-05-27T20:43:06.007Z,70.57
2018-05-27T20:48:07.035Z,70.66
2018-05-27T20:53:08.062Z,71.02
2018-05-27T20:58:09.059Z,70.21
2018-05-27T21:03:10.055Z,69.36
2018-05-27T21:08:11.070Z,68.36
2018-05-27T21:13:12.051Z,68.75
2018-05-27T21:18:13.055Z,68.80
2018-05-27T21:23:14.056Z,69.86
2018-05-27T21:28:15.120Z,69.81
2018-05-27T21:33:16.105Z,70.04
2018-05-27T21:38:17.127Z,69.89
2018-05-27T21:43:18.110Z,70.19
2018-05-27T21:48:19.099Z,71.56
2018-05-27T21:53:20.682Z,72.02
2018-05-27T21:58:21.825Z,72.69
2018-05-27T22:03:22.820Z,75.00
2018-05-27T22:08:23.846Z,77.09
2018-05-27T22:13:24.823Z,77.84
2018-05-27T22:18:25.806Z,77.87
2018-05-27T22:23:26.781Z,78.20
2018-05-27T22:28:27.750Z,78.08
2018-05-27T22:33:28.759Z,78.40
2018-05-27T22:38:29.741Z,78.41
2018-05-27T22:43:30.720Z,77.56
2018-05-27T22:48:31.676Z,77.11
2018-05-27T22:53:32.698Z,77.74
2018-05-27T22:58:33.671Z,79.66
2018-05-27T23:03:34.615Z,79.36
2018-05-27T23:08:35.599Z,79.62
2018-05-27T23:13:36.587Z,79.07
2018-05-27T23:18:37.624Z,78.81
2018-05-27T23:23:38.584Z,78.53
2018-05-27T23:28:39.526Z,78.50
2018-05-27T23:33:40.487Z,78.35
2018-05-27T23:38:41.444Z,78.35
2018-05-27T23:43:42.398Z,78.16
2018-05-27T23:48:43.366Z,77.93
2018-05-27T23:53:44.345Z,78.48
2018-05-27T23:58:45.301Z,79.21
